sensor_id;sensor_type;location;lat;lon;timestamp;P1;durP1;ratioP1;P2;durP2;ratioP2
83747;SDS011;73737;52.364;17.120;2024-02-28T00:00:51;56.30;;;22.90;;
83747;SDS011;73737;52.364;17.120;2024-02-28T00:03:45;49.70;;;21.90;;
83747;SDS011;73737;52.364;17.120;2024-02-28T00:06:17;57.10;;;25.20;;
83747;SDS011;73737;52.364;17.120;2024-02-28T00:08:46;57.10;;;23.60;;
83747;SDS011;73737;52.364;17.120;2024-02-28T00:11:15;63.10;;;27.00;;
83747;SDS011;73737;52.364;17.120;2024-02-28T00:13:44;57.50;;;22.50;;
83747;SDS011;73737;52.364;17.120;2024-02-28T00:16:12;67.20;;;26.30;;
83747;SDS011;73737;52.364;17.120;2024-02-28T00:18:41;74.90;;;32.40;;
83747;SDS011;73737;52.364;17.120;2024-02-28T00:21:09;69.40;;;27.60;;
83747;SDS011;73737;52.364;17.120;2024-02-28T00:23:38;63.10;;;26.60;;
83747;SDS011;73737;52.364;17.120;2024-02-28T00:26:06;63.80;;;25.50;;
83747;SDS011;73737;52.364;17.120;2024-02-28T00:28:39;63.20;;;26.90;;
83747;SDS011;73737;52.364;17.120;2024-02-28T00:31:08;64.60;;;26.60;;
83747;SDS011;73737;52.364;17.120;2024-02-28T00:33:37;59.10;;;26.90;;
83747;SDS011;73737;52.364;17.120;2024-02-28T00:36:05;61.50;;;27.30;;
83747;SDS011;73737;52.364;17.120;2024-02-28T00:38:34;66.00;;;28.40;;
83747;SDS011;73737;52.364;17.120;2024-02-28T00:41:03;63.60;;;26.70;;
83747;SDS011;73737;52.364;17.120;2024-02-28T00:43:32;63.30;;;25.10;;
83747;SDS011;73737;52.364;17.120;2024-02-28T00:46:00;54.30;;;24.10;;
83747;SDS011;73737;52.364;17.120;2024-02-28T00:48:29;53.20;;;22.70;;
83747;SDS011;73737;52.364;17.120;2024-02-28T00:50:57;61.40;;;25.60;;
83747;SDS011;73737;52.364;17.120;2024-02-28T00:53:26;65.90;;;27.50;;
83747;SDS011;73737;52.364;17.120;2024-02-28T00:55:55;57.80;;;23.70;;
83747;SDS011;73737;52.364;17.120;2024-02-28T00:58:23;61.00;;;26.10;;
83747;SDS011;73737;52.364;17.120;2024-02-28T01:00:54;61.60;;;25.30;;
83747;SDS011;73737;52.364;17.120;2024-02-28T01:03:22;71.10;;;28.00;;
83747;SDS011;73737;52.364;17.120;2024-02-28T01:05:51;58.70;;;23.20;;
83747;SDS011;73737;52.364;17.120;2024-02-28T01:08:20;70.40;;;26.30;;
83747;SDS011;73737;52.364;17.120;2024-02-28T01:10:48;70.30;;;26.60;;
83747;SDS011;73737;52.364;17.120;2024-02-28T01:13:17;65.30;;;25.40;;
83747;SDS011;73737;52.364;17.120;2024-02-28T01:15:46;63.10;;;23.40;;
83747;SDS011;73737;52.364;17.120;2024-02-28T01:18:14;72.00;;;24.90;;
83747;SDS011;73737;52.364;17.120;2024-02-28T01:20:43;67.40;;;22.40;;
83747;SDS011;73737;52.364;17.120;2024-02-28T01:23:12;66.30;;;26.50;;
83747;SDS011;73737;52.364;17.120;2024-02-28T01:25:40;65.60;;;23.20;;
83747;SDS011;73737;52.364;17.120;2024-02-28T01:28:09;70.30;;;25.00;;
83747;SDS011;73737;52.364;17.120;2024-02-28T01:30:39;70.70;;;25.10;;
83747;SDS011;73737;52.364;17.120;2024-02-28T01:33:08;63.80;;;24.80;;
83747;SDS011;73737;52.364;17.120;2024-02-28T01:35:37;66.30;;;23.00;;
83747;SDS011;73737;52.364;17.120;2024-02-28T01:38:06;67.20;;;24.90;;
83747;SDS011;73737;52.364;17.120;2024-02-28T01:40:34;63.60;;;23.10;;
83747;SDS011;73737;52.364;17.120;2024-02-28T01:43:03;69.10;;;23.10;;
83747;SDS011;73737;52.364;17.120;2024-02-28T01:45:35;70.70;;;23.90;;
83747;SDS011;73737;52.364;17.120;2024-02-28T01:48:04;56.10;;;21.40;;
83747;SDS011;73737;52.364;17.120;2024-02-28T01:50:39;62.80;;;22.70;;
83747;SDS011;73737;52.364;17.120;2024-02-28T01:53:09;62.50;;;23.30;;
83747;SDS011;73737;52.364;17.120;2024-02-28T01:55:39;61.90;;;22.20;;
83747;SDS011;73737;52.364;17.120;2024-02-28T01:58:09;66.60;;;21.80;;
83747;SDS011;73737;52.364;17.120;2024-02-28T02:00:38;55.20;;;20.80;;
83747;SDS011;73737;52.364;17.120;2024-02-28T02:03:08;56.80;;;19.60;;
83747;SDS011;73737;52.364;17.120;2024-02-28T02:05:36;54.00;;;18.50;;
83747;SDS011;73737;52.364;17.120;2024-02-28T02:08:05;67.40;;;18.90;;
83747;SDS011;73737;52.364;17.120;2024-02-28T02:10:34;59.70;;;20.80;;
83747;SDS011;73737;52.364;17.120;2024-02-28T02:13:06;60.70;;;19.70;;
83747;SDS011;73737;52.364;17.120;2024-02-28T02:15:35;64.10;;;20.00;;
83747;SDS011;73737;52.364;17.120;2024-02-28T02:18:03;60.50;;;20.80;;
83747;SDS011;73737;52.364;17.120;2024-02-28T02:20:32;57.30;;;20.20;;
83747;SDS011;73737;52.364;17.120;2024-02-28T02:23:01;57.60;;;21.20;;
83747;SDS011;73737;52.364;17.120;2024-02-28T02:25:30;59.40;;;20.50;;
83747;SDS011;73737;52.364;17.120;2024-02-28T02:27:59;58.50;;;20.80;;
83747;SDS011;73737;52.364;17.120;2024-02-28T02:30:27;49.70;;;16.90;;
83747;SDS011;73737;52.364;17.120;2024-02-28T02:32:56;55.20;;;19.60;;
83747;SDS011;73737;52.364;17.120;2024-02-28T02:35:25;60.00;;;21.40;;
83747;SDS011;73737;52.364;17.120;2024-02-28T02:37:53;65.00;;;20.40;;
83747;SDS011;73737;52.364;17.120;2024-02-28T02:40:22;59.10;;;22.00;;
83747;SDS011;73737;52.364;17.120;2024-02-28T02:42:51;54.70;;;20.00;;
83747;SDS011;73737;52.364;17.120;2024-02-28T02:45:19;55.40;;;19.70;;
83747;SDS011;73737;52.364;17.120;2024-02-28T02:47:48;61.20;;;22.00;;
83747;SDS011;73737;52.364;17.120;2024-02-28T02:50:17;58.90;;;21.10;;
83747;SDS011;73737;52.364;17.120;2024-02-28T02:52:45;62.50;;;21.60;;
83747;SDS011;73737;52.364;17.120;2024-02-28T02:55:21;66.70;;;19.50;;
83747;SDS011;73737;52.364;17.120;2024-02-28T02:57:49;59.00;;;21.60;;
83747;SDS011;73737;52.364;17.120;2024-02-28T03:00:18;55.80;;;20.40;;
83747;SDS011;73737;52.364;17.120;2024-02-28T03:02:47;65.60;;;21.70;;
83747;SDS011;73737;52.364;17.120;2024-02-28T03:05:16;63.50;;;22.10;;
83747;SDS011;73737;52.364;17.120;2024-02-28T03:07:44;60.30;;;20.20;;
83747;SDS011;73737;52.364;17.120;2024-02-28T03:10:13;61.10;;;21.00;;
83747;SDS011;73737;52.364;17.120;2024-02-28T03:12:41;57.00;;;20.00;;
83747;SDS011;73737;52.364;17.120;2024-02-28T03:15:10;67.20;;;22.70;;
83747;SDS011;73737;52.364;17.120;2024-02-28T03:17:38;57.50;;;21.30;;
83747;SDS011;73737;52.364;17.120;2024-02-28T03:20:07;51.50;;;17.80;;
83747;SDS011;73737;52.364;17.120;2024-02-28T03:22:36;56.40;;;18.50;;
83747;SDS011;73737;52.364;17.120;2024-02-28T03:25:05;53.50;;;18.40;;
83747;SDS011;73737;52.364;17.120;2024-02-28T03:27:34;41.10;;;17.30;;
83747;SDS011;73737;52.364;17.120;2024-02-28T03:30:03;52.00;;;18.30;;
83747;SDS011;73737;52.364;17.120;2024-02-28T03:32:32;56.40;;;19.70;;
83747;SDS011;73737;52.364;17.120;2024-02-28T03:35:01;58.90;;;22.10;;
83747;SDS011;73737;52.364;17.120;2024-02-28T03:37:29;53.50;;;17.50;;
83747;SDS011;73737;52.364;17.120;2024-02-28T03:39:59;52.30;;;18.80;;
83747;SDS011;73737;52.364;17.120;2024-02-28T03:42:27;64.00;;;22.10;;
83747;SDS011;73737;52.364;17.120;2024-02-28T03:44:56;49.10;;;17.70;;
83747;SDS011;73737;52.364;17.120;2024-02-28T03:47:24;55.60;;;20.00;;
83747;SDS011;73737;52.364;17.120;2024-02-28T03:49:53;53.30;;;17.40;;
83747;SDS011;73737;52.364;17.120;2024-02-28T03:52:25;59.50;;;21.20;;
83747;SDS011;73737;52.364;17.120;2024-02-28T03:54:54;64.60;;;23.80;;
83747;SDS011;73737;52.364;17.120;2024-02-28T03:57:22;65.40;;;21.40;;
83747;SDS011;73737;52.364;17.120;2024-02-28T03:59:51;66.30;;;22.80;;
83747;SDS011;73737;52.364;17.120;2024-02-28T04:02:19;57.90;;;19.30;;
83747;SDS011;73737;52.364;17.120;2024-02-28T04:04:48;51.20;;;17.10;;
83747;SDS011;73737;52.364;17.120;2024-02-28T04:07:16;63.30;;;21.50;;
83747;SDS011;73737;52.364;17.120;2024-02-28T04:09:45;63.20;;;22.30;;
83747;SDS011;73737;52.364;17.120;2024-02-28T04:12:14;60.50;;;21.60;;
83747;SDS011;73737;52.364;17.120;2024-02-28T04:14:42;63.50;;;23.90;;
83747;SDS011;73737;52.364;17.120;2024-02-28T04:17:11;63.20;;;22.20;;
83747;SDS011;73737;52.364;17.120;2024-02-28T04:19:40;60.70;;;23.20;;
83747;SDS011;73737;52.364;17.120;2024-02-28T04:22:08;58.60;;;19.70;;
83747;SDS011;73737;52.364;17.120;2024-02-28T04:24:37;71.60;;;23.90;;
83747;SDS011;73737;52.364;17.120;2024-02-28T04:27:06;64.00;;;21.20;;
83747;SDS011;73737;52.364;17.120;2024-02-28T04:29:38;60.20;;;19.90;;
83747;SDS011;73737;52.364;17.120;2024-02-28T04:32:06;62.00;;;21.70;;
83747;SDS011;73737;52.364;17.120;2024-02-28T04:34:35;65.00;;;20.50;;
83747;SDS011;73737;52.364;17.120;2024-02-28T04:37:04;53.00;;;20.20;;
83747;SDS011;73737;52.364;17.120;2024-02-28T04:39:33;61.50;;;22.10;;
83747;SDS011;73737;52.364;17.120;2024-02-28T04:42:01;55.70;;;18.30;;
83747;SDS011;73737;52.364;17.120;2024-02-28T04:44:30;63.30;;;19.30;;
83747;SDS011;73737;52.364;17.120;2024-02-28T04:46:59;59.00;;;18.80;;
83747;SDS011;73737;52.364;17.120;2024-02-28T04:49:27;55.00;;;18.70;;
83747;SDS011;73737;52.364;17.120;2024-02-28T04:51:56;68.20;;;22.30;;
83747;SDS011;73737;52.364;17.120;2024-02-28T04:54:24;71.80;;;23.20;;
83747;SDS011;73737;52.364;17.120;2024-02-28T04:56:53;66.30;;;21.30;;
83747;SDS011;73737;52.364;17.120;2024-02-28T04:59:21;62.40;;;20.80;;
83747;SDS011;73737;52.364;17.120;2024-02-28T05:01:50;61.00;;;19.00;;
83747;SDS011;73737;52.364;17.120;2024-02-28T05:04:19;55.30;;;16.20;;
83747;SDS011;73737;52.364;17.120;2024-02-28T05:06:47;57.50;;;16.80;;
83747;SDS011;73737;52.364;17.120;2024-02-28T05:09:16;60.30;;;18.70;;
83747;SDS011;73737;52.364;17.120;2024-02-28T05:11:45;60.20;;;19.50;;
83747;SDS011;73737;52.364;17.120;2024-02-28T05:14:13;57.80;;;18.20;;
83747;SDS011;73737;52.364;17.120;2024-02-28T05:16:42;59.20;;;19.90;;
83747;SDS011;73737;52.364;17.120;2024-02-28T05:19:11;86.10;;;19.40;;
83747;SDS011;73737;52.364;17.120;2024-02-28T05:21:40;63.10;;;19.60;;
83747;SDS011;73737;52.364;17.120;2024-02-28T05:24:10;58.80;;;19.40;;
83747;SDS011;73737;52.364;17.120;2024-02-28T05:26:38;65.70;;;21.30;;
83747;SDS011;73737;52.364;17.120;2024-02-28T05:29:07;63.10;;;18.60;;
83747;SDS011;73737;52.364;17.120;2024-02-28T05:31:36;58.90;;;19.00;;
83747;SDS011;73737;52.364;17.120;2024-02-28T05:34:06;56.20;;;19.00;;
83747;SDS011;73737;52.364;17.120;2024-02-28T05:36:35;61.50;;;19.80;;
83747;SDS011;73737;52.364;17.120;2024-02-28T05:39:03;64.70;;;19.00;;
83747;SDS011;73737;52.364;17.120;2024-02-28T05:44:05;69.70;;;19.70;;
83747;SDS011;73737;52.364;17.120;2024-02-28T05:46:33;58.20;;;19.40;;
83747;SDS011;73737;52.364;17.120;2024-02-28T05:49:02;48.20;;;15.60;;
83747;SDS011;73737;52.364;17.120;2024-02-28T05:51:32;51.10;;;18.00;;
83747;SDS011;73737;52.364;17.120;2024-02-28T05:54:00;49.90;;;16.60;;
83747;SDS011;73737;52.364;17.120;2024-02-28T05:56:30;50.70;;;17.40;;
83747;SDS011;73737;52.364;17.120;2024-02-28T05:58:58;57.80;;;17.10;;
83747;SDS011;73737;52.364;17.120;2024-02-28T06:01:27;55.40;;;14.80;;
83747;SDS011;73737;52.364;17.120;2024-02-28T06:03:56;34.70;;;12.60;;
83747;SDS011;73737;52.364;17.120;2024-02-28T06:08:13;48.90;;;16.30;;
83747;SDS011;73737;52.364;17.120;2024-02-28T06:10:43;50.80;;;16.50;;
83747;SDS011;73737;52.364;17.120;2024-02-28T06:13:15;46.90;;;16.60;;
83747;SDS011;73737;52.364;17.120;2024-02-28T06:15:44;43.30;;;13.50;;
83747;SDS011;73737;52.364;17.120;2024-02-28T06:18:13;44.60;;;13.90;;
83747;SDS011;73737;52.364;17.120;2024-02-28T06:20:41;49.90;;;14.30;;
83747;SDS011;73737;52.364;17.120;2024-02-28T06:23:10;46.80;;;14.80;;
83747;SDS011;73737;52.364;17.120;2024-02-28T06:25:39;46.00;;;13.90;;
83747;SDS011;73737;52.364;17.120;2024-02-28T06:28:07;43.10;;;15.20;;
83747;SDS011;73737;52.364;17.120;2024-02-28T06:30:38;40.90;;;14.10;;
83747;SDS011;73737;52.364;17.120;2024-02-28T06:33:06;40.60;;;14.90;;
83747;SDS011;73737;52.364;17.120;2024-02-28T06:35:37;43.50;;;14.10;;
83747;SDS011;73737;52.364;17.120;2024-02-28T06:38:05;38.70;;;13.90;;
83747;SDS011;73737;52.364;17.120;2024-02-28T06:40:34;44.50;;;16.40;;
83747;SDS011;73737;52.364;17.120;2024-02-28T06:43:03;45.10;;;15.10;;
83747;SDS011;73737;52.364;17.120;2024-02-28T06:45:33;40.80;;;15.10;;
83747;SDS011;73737;52.364;17.120;2024-02-28T06:48:01;43.60;;;15.90;;
83747;SDS011;73737;52.364;17.120;2024-02-28T06:50:30;45.90;;;16.20;;
83747;SDS011;73737;52.364;17.120;2024-02-28T06:52:58;49.20;;;15.30;;
83747;SDS011;73737;52.364;17.120;2024-02-28T06:55:27;45.70;;;15.30;;
83747;SDS011;73737;52.364;17.120;2024-02-28T06:57:55;60.10;;;17.20;;
83747;SDS011;73737;52.364;17.120;2024-02-28T07:00:25;51.90;;;16.70;;
83747;SDS011;73737;52.364;17.120;2024-02-28T07:02:53;61.60;;;18.70;;
83747;SDS011;73737;52.364;17.120;2024-02-28T07:05:22;60.60;;;17.90;;
83747;SDS011;73737;52.364;17.120;2024-02-28T07:07:50;58.80;;;19.10;;
83747;SDS011;73737;52.364;17.120;2024-02-28T07:10:19;59.80;;;18.70;;
83747;SDS011;73737;52.364;17.120;2024-02-28T07:12:48;52.70;;;16.80;;
83747;SDS011;73737;52.364;17.120;2024-02-28T07:15:16;55.20;;;17.30;;
83747;SDS011;73737;52.364;17.120;2024-02-28T07:17:49;58.80;;;17.10;;
83747;SDS011;73737;52.364;17.120;2024-02-28T07:20:18;64.90;;;19.60;;
83747;SDS011;73737;52.364;17.120;2024-02-28T07:22:46;65.60;;;20.50;;
83747;SDS011;73737;52.364;17.120;2024-02-28T07:25:15;60.00;;;18.90;;
83747;SDS011;73737;52.364;17.120;2024-02-28T07:27:44;65.30;;;20.10;;
83747;SDS011;73737;52.364;17.120;2024-02-28T07:30:12;63.90;;;19.30;;
83747;SDS011;73737;52.364;17.120;2024-02-28T07:32:41;58.00;;;20.20;;
83747;SDS011;73737;52.364;17.120;2024-02-28T07:35:11;64.30;;;19.30;;
83747;SDS011;73737;52.364;17.120;2024-02-28T07:37:40;59.90;;;18.60;;
83747;SDS011;73737;52.364;17.120;2024-02-28T07:40:09;64.10;;;19.70;;
83747;SDS011;73737;52.364;17.120;2024-02-28T07:42:38;57.00;;;18.80;;
83747;SDS011;73737;52.364;17.120;2024-02-28T07:45:06;65.80;;;20.50;;
83747;SDS011;73737;52.364;17.120;2024-02-28T07:47:37;63.90;;;20.60;;
83747;SDS011;73737;52.364;17.120;2024-02-28T07:50:06;54.60;;;18.00;;
83747;SDS011;73737;52.364;17.120;2024-02-28T07:52:35;54.80;;;19.10;;
83747;SDS011;73737;52.364;17.120;2024-02-28T07:55:05;50.70;;;18.70;;
83747;SDS011;73737;52.364;17.120;2024-02-28T07:57:34;52.70;;;20.00;;
83747;SDS011;73737;52.364;17.120;2024-02-28T08:00:03;55.80;;;19.50;;
83747;SDS011;73737;52.364;17.120;2024-02-28T08:02:40;59.40;;;20.20;;
83747;SDS011;73737;52.364;17.120;2024-02-28T08:05:08;47.00;;;17.50;;
83747;SDS011;73737;52.364;17.120;2024-02-28T08:07:38;45.40;;;17.40;;
83747;SDS011;73737;52.364;17.120;2024-02-28T08:10:07;47.20;;;16.40;;
83747;SDS011;73737;52.364;17.120;2024-02-28T08:12:38;50.50;;;17.20;;
83747;SDS011;73737;52.364;17.120;2024-02-28T08:15:06;49.70;;;17.60;;
83747;SDS011;73737;52.364;17.120;2024-02-28T08:17:35;50.80;;;16.50;;
83747;SDS011;73737;52.364;17.120;2024-02-28T08:20:05;50.00;;;18.00;;
83747;SDS011;73737;52.364;17.120;2024-02-28T08:22:34;47.80;;;17.60;;
83747;SDS011;73737;52.364;17.120;2024-02-28T08:25:03;46.00;;;17.40;;
83747;SDS011;73737;52.364;17.120;2024-02-28T08:27:32;45.70;;;17.80;;
83747;SDS011;73737;52.364;17.120;2024-02-28T08:30:04;44.70;;;16.50;;
83747;SDS011;73737;52.364;17.120;2024-02-28T08:32:36;44.60;;;15.90;;
83747;SDS011;73737;52.364;17.120;2024-02-28T08:35:06;34.80;;;11.80;;
83747;SDS011;73737;52.364;17.120;2024-02-28T08:37:40;40.90;;;14.70;;
83747;SDS011;73737;52.364;17.120;2024-02-28T08:40:09;33.20;;;12.70;;
83747;SDS011;73737;52.364;17.120;2024-02-28T08:42:38;46.40;;;15.90;;
83747;SDS011;73737;52.364;17.120;2024-02-28T08:45:07;39.00;;;13.40;;
83747;SDS011;73737;52.364;17.120;2024-02-28T08:47:36;44.40;;;15.70;;
83747;SDS011;73737;52.364;17.120;2024-02-28T08:50:04;45.70;;;15.80;;
83747;SDS011;73737;52.364;17.120;2024-02-28T08:52:34;46.10;;;17.90;;
83747;SDS011;73737;52.364;17.120;2024-02-28T08:55:02;38.50;;;13.70;;
83747;SDS011;73737;52.364;17.120;2024-02-28T08:57:31;36.70;;;14.30;;
83747;SDS011;73737;52.364;17.120;2024-02-28T09:00:00;33.80;;;13.00;;
83747;SDS011;73737;52.364;17.120;2024-02-28T09:02:28;34.50;;;14.50;;
83747;SDS011;73737;52.364;17.120;2024-02-28T09:04:57;29.40;;;11.60;;
83747;SDS011;73737;52.364;17.120;2024-02-28T09:07:25;34.80;;;14.70;;
83747;SDS011;73737;52.364;17.120;2024-02-28T09:09:54;39.60;;;17.30;;
83747;SDS011;73737;52.364;17.120;2024-02-28T09:12:23;35.90;;;13.50;;
83747;SDS011;73737;52.364;17.120;2024-02-28T09:14:52;40.00;;;15.70;;
83747;SDS011;73737;52.364;17.120;2024-02-28T09:17:25;42.40;;;16.70;;
83747;SDS011;73737;52.364;17.120;2024-02-28T09:19:54;30.10;;;10.30;;
83747;SDS011;73737;52.364;17.120;2024-02-28T09:22:22;39.80;;;15.00;;
83747;SDS011;73737;52.364;17.120;2024-02-28T09:24:53;35.30;;;13.70;;
83747;SDS011;73737;52.364;17.120;2024-02-28T09:27:22;38.50;;;16.00;;
83747;SDS011;73737;52.364;17.120;2024-02-28T09:29:50;40.60;;;17.50;;
83747;SDS011;73737;52.364;17.120;2024-02-28T09:32:19;32.40;;;13.90;;
83747;SDS011;73737;52.364;17.120;2024-02-28T09:34:48;29.00;;;11.80;;
83747;SDS011;73737;52.364;17.120;2024-02-28T09:37:17;28.50;;;12.40;;
83747;SDS011;73737;52.364;17.120;2024-02-28T09:39:45;29.50;;;12.70;;
83747;SDS011;73737;52.364;17.120;2024-02-28T09:42:14;20.40;;;9.90;;
83747;SDS011;73737;52.364;17.120;2024-02-28T09:44:43;22.20;;;11.10;;
83747;SDS011;73737;52.364;17.120;2024-02-28T09:47:12;21.50;;;10.20;;
83747;SDS011;73737;52.364;17.120;2024-02-28T09:49:44;18.30;;;8.40;;
83747;SDS011;73737;52.364;17.120;2024-02-28T09:52:14;8.10;;;5.00;;
83747;SDS011;73737;52.364;17.120;2024-02-28T09:54:43;22.40;;;10.90;;
83747;SDS011;73737;52.364;17.120;2024-02-28T09:57:12;21.80;;;9.80;;
83747;SDS011;73737;52.364;17.120;2024-02-28T09:59:41;23.40;;;11.00;;
83747;SDS011;73737;52.364;17.120;2024-02-28T10:02:10;22.60;;;11.30;;
83747;SDS011;73737;52.364;17.120;2024-02-28T10:04:40;17.90;;;9.40;;
83747;SDS011;73737;52.364;17.120;2024-02-28T10:07:15;16.70;;;7.70;;
83747;SDS011;73737;52.364;17.120;2024-02-28T10:09:43;21.20;;;9.70;;
83747;SDS011;73737;52.364;17.120;2024-02-28T10:12:12;17.10;;;8.10;;
83747;SDS011;73737;52.364;17.120;2024-02-28T10:14:41;18.60;;;8.90;;
83747;SDS011;73737;52.364;17.120;2024-02-28T10:17:10;19.40;;;9.30;;
83747;SDS011;73737;52.364;17.120;2024-02-28T10:19:38;15.00;;;8.10;;
83747;SDS011;73737;52.364;17.120;2024-02-28T10:22:07;22.30;;;9.40;;
83747;SDS011;73737;52.364;17.120;2024-02-28T10:24:36;23.40;;;11.30;;
83747;SDS011;73737;52.364;17.120;2024-02-28T10:27:05;23.50;;;11.80;;
83747;SDS011;73737;52.364;17.120;2024-02-28T10:29:34;20.50;;;11.00;;
83747;SDS011;73737;52.364;17.120;2024-02-28T10:32:03;21.90;;;10.50;;
83747;SDS011;73737;52.364;17.120;2024-02-28T10:34:33;20.40;;;9.00;;
83747;SDS011;73737;52.364;17.120;2024-02-28T10:37:03;25.10;;;12.00;;
83747;SDS011;73737;52.364;17.120;2024-02-28T10:39:33;20.60;;;9.80;;
83747;SDS011;73737;52.364;17.120;2024-02-28T10:42:02;23.00;;;11.20;;
83747;SDS011;73737;52.364;17.120;2024-02-28T10:44:32;16.30;;;8.10;;
83747;SDS011;73737;52.364;17.120;2024-02-28T10:47:02;26.20;;;11.80;;
83747;SDS011;73737;52.364;17.120;2024-02-28T10:49:32;17.80;;;8.50;;
83747;SDS011;73737;52.364;17.120;2024-02-28T10:52:00;27.20;;;11.80;;
83747;SDS011;73737;52.364;17.120;2024-02-28T10:54:31;22.70;;;12.30;;
83747;SDS011;73737;52.364;17.120;2024-02-28T10:57:01;23.30;;;11.90;;
83747;SDS011;73737;52.364;17.120;2024-02-28T10:59:30;16.30;;;9.00;;
83747;SDS011;73737;52.364;17.120;2024-02-28T11:02:01;20.50;;;10.00;;
83747;SDS011;73737;52.364;17.120;2024-02-28T11:04:31;24.70;;;11.30;;
83747;SDS011;73737;52.364;17.120;2024-02-28T11:07:00;23.20;;;11.40;;
83747;SDS011;73737;52.364;17.120;2024-02-28T11:09:29;19.70;;;10.10;;
83747;SDS011;73737;52.364;17.120;2024-02-28T11:12:00;20.70;;;10.10;;
83747;SDS011;73737;52.364;17.120;2024-02-28T11:14:32;21.90;;;11.40;;
83747;SDS011;73737;52.364;17.120;2024-02-28T11:17:01;27.00;;;12.30;;
83747;SDS011;73737;52.364;17.120;2024-02-28T11:19:32;27.00;;;13.00;;
83747;SDS011;73737;52.364;17.120;2024-02-28T11:22:02;19.80;;;9.30;;
83747;SDS011;73737;52.364;17.120;2024-02-28T11:24:35;23.20;;;11.30;;
83747;SDS011;73737;52.364;17.120;2024-02-28T11:29:34;25.30;;;12.90;;
83747;SDS011;73737;52.364;17.120;2024-02-28T11:32:03;19.00;;;10.60;;
83747;SDS011;73737;52.364;17.120;2024-02-28T11:34:33;27.20;;;14.10;;
83747;SDS011;73737;52.364;17.120;2024-02-28T11:37:02;20.70;;;11.10;;
83747;SDS011;73737;52.364;17.120;2024-02-28T11:39:31;25.10;;;12.80;;
83747;SDS011;73737;52.364;17.120;2024-02-28T11:42:14;25.20;;;14.00;;
83747;SDS011;73737;52.364;17.120;2024-02-28T11:44:52;26.80;;;13.90;;
83747;SDS011;73737;52.364;17.120;2024-02-28T11:47:22;31.60;;;16.70;;
83747;SDS011;73737;52.364;17.120;2024-02-28T11:49:51;26.40;;;14.10;;
83747;SDS011;73737;52.364;17.120;2024-02-28T11:52:20;22.50;;;12.00;;
83747;SDS011;73737;52.364;17.120;2024-02-28T11:54:48;24.90;;;12.00;;
83747;SDS011;73737;52.364;17.120;2024-02-28T11:57:19;22.40;;;12.00;;
83747;SDS011;73737;52.364;17.120;2024-02-28T11:59:47;23.20;;;13.00;;
83747;SDS011;73737;52.364;17.120;2024-02-28T12:02:16;21.90;;;12.50;;
83747;SDS011;73737;52.364;17.120;2024-02-28T12:04:45;22.00;;;11.80;;
83747;SDS011;73737;52.364;17.120;2024-02-28T12:07:18;19.90;;;11.80;;
83747;SDS011;73737;52.364;17.120;2024-02-28T12:09:47;20.10;;;12.40;;
83747;SDS011;73737;52.364;17.120;2024-02-28T12:12:17;26.40;;;13.10;;
83747;SDS011;73737;52.364;17.120;2024-02-28T12:14:46;19.90;;;11.70;;
83747;SDS011;73737;52.364;17.120;2024-02-28T12:17:15;18.10;;;11.40;;
83747;SDS011;73737;52.364;17.120;2024-02-28T12:19:44;23.70;;;12.80;;
83747;SDS011;73737;52.364;17.120;2024-02-28T12:22:12;21.90;;;10.80;;
83747;SDS011;73737;52.364;17.120;2024-02-28T12:24:41;23.80;;;11.10;;
83747;SDS011;73737;52.364;17.120;2024-02-28T12:27:10;23.80;;;13.40;;
83747;SDS011;73737;52.364;17.120;2024-02-28T12:29:38;21.10;;;9.90;;
83747;SDS011;73737;52.364;17.120;2024-02-28T12:32:07;19.90;;;10.30;;
83747;SDS011;73737;52.364;17.120;2024-02-28T12:34:37;21.30;;;11.30;;
83747;SDS011;73737;52.364;17.120;2024-02-28T12:37:05;19.00;;;10.90;;
83747;SDS011;73737;52.364;17.120;2024-02-28T12:39:35;18.90;;;11.10;;
83747;SDS011;73737;52.364;17.120;2024-02-28T12:42:03;21.50;;;10.50;;
83747;SDS011;73737;52.364;17.120;2024-02-28T12:44:32;19.50;;;9.90;;
83747;SDS011;73737;52.364;17.120;2024-02-28T12:47:01;19.60;;;9.80;;
83747;SDS011;73737;52.364;17.120;2024-02-28T12:49:30;23.70;;;12.30;;
83747;SDS011;73737;52.364;17.120;2024-02-28T12:51:58;18.40;;;9.80;;
83747;SDS011;73737;52.364;17.120;2024-02-28T12:54:27;19.40;;;10.50;;
83747;SDS011;73737;52.364;17.120;2024-02-28T12:56:57;18.70;;;8.90;;
83747;SDS011;73737;52.364;17.120;2024-02-28T12:59:25;19.00;;;9.00;;
83747;SDS011;73737;52.364;17.120;2024-02-28T13:01:54;19.50;;;10.10;;
83747;SDS011;73737;52.364;17.120;2024-02-28T13:04:22;19.20;;;9.80;;
83747;SDS011;73737;52.364;17.120;2024-02-28T13:06:51;23.80;;;11.30;;
83747;SDS011;73737;52.364;17.120;2024-02-28T13:09:21;20.00;;;9.40;;
83747;SDS011;73737;52.364;17.120;2024-02-28T13:11:51;22.90;;;12.20;;
83747;SDS011;73737;52.364;17.120;2024-02-28T13:14:19;18.20;;;9.10;;
83747;SDS011;73737;52.364;17.120;2024-02-28T13:16:48;20.70;;;10.20;;
83747;SDS011;73737;52.364;17.120;2024-02-28T13:19:18;21.10;;;9.70;;
83747;SDS011;73737;52.364;17.120;2024-02-28T13:21:47;17.90;;;9.30;;
83747;SDS011;73737;52.364;17.120;2024-02-28T13:24:15;14.80;;;8.00;;
83747;SDS011;73737;52.364;17.120;2024-02-28T13:26:45;19.50;;;10.10;;
83747;SDS011;73737;52.364;17.120;2024-02-28T13:29:13;13.90;;;7.10;;
83747;SDS011;73737;52.364;17.120;2024-02-28T13:31:43;15.80;;;7.80;;
83747;SDS011;73737;52.364;17.120;2024-02-28T13:34:12;17.00;;;7.50;;
83747;SDS011;73737;52.364;17.120;2024-02-28T13:36:41;18.50;;;9.30;;
83747;SDS011;73737;52.364;17.120;2024-02-28T13:39:12;17.80;;;9.20;;
83747;SDS011;73737;52.364;17.120;2024-02-28T13:41:41;17.60;;;9.10;;
83747;SDS011;73737;52.364;17.120;2024-02-28T13:44:10;17.80;;;9.30;;
83747;SDS011;73737;52.364;17.120;2024-02-28T13:46:39;19.20;;;9.10;;
83747;SDS011;73737;52.364;17.120;2024-02-28T13:49:09;21.60;;;10.10;;
83747;SDS011;73737;52.364;17.120;2024-02-28T13:51:39;9.60;;;4.80;;
83747;SDS011;73737;52.364;17.120;2024-02-28T13:54:07;17.30;;;8.90;;
83747;SDS011;73737;52.364;17.120;2024-02-28T13:56:36;20.10;;;8.70;;
83747;SDS011;73737;52.364;17.120;2024-02-28T13:59:05;18.90;;;8.60;;
83747;SDS011;73737;52.364;17.120;2024-02-28T14:01:34;12.50;;;6.10;;
83747;SDS011;73737;52.364;17.120;2024-02-28T14:04:04;14.90;;;7.30;;
83747;SDS011;73737;52.364;17.120;2024-02-28T14:06:32;14.10;;;7.70;;
83747;SDS011;73737;52.364;17.120;2024-02-28T14:09:00;15.90;;;8.60;;
83747;SDS011;73737;52.364;17.120;2024-02-28T14:11:29;15.00;;;7.60;;
83747;SDS011;73737;52.364;17.120;2024-02-28T14:13:58;13.60;;;6.80;;
83747;SDS011;73737;52.364;17.120;2024-02-28T14:16:26;14.40;;;6.30;;
83747;SDS011;73737;52.364;17.120;2024-02-28T14:18:55;17.10;;;8.10;;
83747;SDS011;73737;52.364;17.120;2024-02-28T14:21:23;12.90;;;6.60;;
83747;SDS011;73737;52.364;17.120;2024-02-28T14:23:52;14.40;;;6.80;;
83747;SDS011;73737;52.364;17.120;2024-02-28T14:26:22;13.20;;;7.80;;
83747;SDS011;73737;52.364;17.120;2024-02-28T14:28:52;9.70;;;5.40;;